Flight Track Log - Related Links

Times and Time Zones

All times are in EDT time to prevent confusion due to time zone crossing. See the UAL4700 flight status page for this flight to view local times or setup timezone preferences in your user account.

Time Position Orientation Groundspeed Altitude Reporting Facility
EDT Latitude Longitude Course Direction KTS MPH feet Rate Location/Type
Tue 09:33:23 PM 40.7167 -74.1333 246° West 171 197 2,100  Level New York TRACON
Tue 09:34:23 PM 40.7500 -74.1833 311° West 249 287 4,000 1,800 Climbing New York TRACON
Tue 09:35:23 PM 40.7333 -74.3000 259° West 268 308 5,700 2,200 Climbing New York TRACON
Tue 09:36:00 PM 40.5333 -74.6059 250° West  Level FlightAware Approximate
Tue 09:36:23 PM 40.7333 -74.3833 270° West 266 306 8,400  Level New York TRACON
Tue 09:37:00 PM 40.4981 -74.7226 246° West  Level FlightAware Approximate
Tue 09:37:24 PM 40.7167 -74.4833 258° West 287 330 10,400  Level New York TRACON
Tue 09:38:00 PM 40.4597 -74.8376 246° West  Level FlightAware Approximate
Tue 09:39:17 PM 40.6100 -74.6583 231° Southwest 332 382 12,600  Level New York Center
Tue 09:40:14 PM 40.5483 -74.7642 233° Southwest 357 411 14,300 1,576 Climbing New York Center
Tue 09:41:15 PM 40.4911 -74.8536 230° Southwest 357 411 15,700 1,587 Climbing New York Center
Tue 09:42:15 PM 40.4267 -74.9642 233° Southwest 357 411 17,500 1,525 Climbing New York Center
Tue 09:43:17 PM 40.3653 -75.0503 227° Southwest 362 417 18,800 1,400 Climbing New York Center
Tue 09:44:15 PM 40.2992 -75.1469 228° Southwest 362 417 20,300 1,563 Climbing New York Center
Tue 09:45:16 PM 40.2289 -75.2431 226° Southwest 367 422 21,900 1,339 Climbing New York Center
Tue 09:46:16 PM 40.1561 -75.3444 227° Southwest 378 435 23,000 1,109 Climbing New York Center
Tue 09:47:15 PM 40.0833 -75.4481 227° Southwest 383 441 24,100 1,412 Climbing New York Center
Tue 09:48:15 PM 39.9994 -75.5672 227° Southwest 400 460 25,800 1,770 Climbing New York Center
Tue 09:49:17 PM 39.9242 -75.6675 226° Southwest 400 460 27,700 1,563 Climbing New York Center
Tue 09:50:14 PM 39.8533 -75.7708 228° Southwest 395 455 28,900 1,109 Climbing New York Center
Tue 09:51:16 PM 39.7947 -75.8747 234° Southwest 390 449 29,900 927 Climbing New York Center
Tue 09:52:17 PM 39.7253 -75.9831 230° Southwest 384 442 30,800 897 Climbing New York Center
Tue 09:54:10 PM 39.5997 -76.1786 230° Southwest 399 459 32,500 902 Climbing Washington Center
Tue 09:55:10 PM 39.5303 -76.2911 231° Southwest 404 465 33,400 900 Climbing Washington Center
Tue 09:56:10 PM 39.4567 -76.4033 230° Southwest 404 465 34,300 1,000 Climbing Washington Center
Tue 09:57:10 PM 39.3725 -76.5231 228° Southwest 404 465 35,400 850 Climbing Washington Center
Tue 09:58:10 PM 39.3028 -76.6375 232° Southwest 414 476 36,000 300 Climbing Washington Center
Tue 09:59:10 PM 39.2267 -76.7517 229° Southwest 414 476 36,000  Level Washington Center
Tue 10:00:10 PM 39.1506 -76.8708 231° Southwest 428 493 36,000  Level Washington Center
Tue 10:01:10 PM 39.0761 -76.9900 231° Southwest 428 493 36,000  Level Washington Center
Tue 10:02:10 PM 38.9914 -77.0978 225° Southwest 428 493 36,000  Level Washington Center
Tue 10:03:10 PM 38.8964 -77.1972 219° Southwest 433 498 36,000  Level Washington Center
Tue 10:04:10 PM 38.8033 -77.2992 221° Southwest 443 510 36,000  Level Washington Center
Tue 10:05:10 PM 38.7100 -77.4008 220° Southwest 448 516 36,000  Level Washington Center
Tue 10:06:10 PM 38.6167 -77.5047 221° Southwest 448 516 36,000  Level Washington Center
Tue 10:07:10 PM 38.5425 -77.5853 220° Southwest 443 510 36,000  Level Washington Center
Tue 10:08:10 PM 38.4425 -77.6964 221° Southwest 436 502 36,000  Level Washington Center
Tue 10:09:10 PM 38.3492 -77.7944 219° Southwest 436 502 36,000  Level Washington Center
Tue 10:10:10 PM 38.2575 -77.8950 221° Southwest 436 502 36,000  Level Washington Center
Tue 10:11:10 PM 38.1658 -77.9925 220° Southwest 436 502 36,000  Level Washington Center
Tue 10:12:10 PM 38.0764 -78.0897 221° Southwest 436 502 36,000  Level Washington Center
Tue 10:13:10 PM 37.9842 -78.2028 224° Southwest 429 494 36,000  Level Washington Center
Tue 10:14:10 PM 37.9067 -78.3131 228° Southwest 422 486 36,000  Level Washington Center
Tue 10:15:10 PM 37.8292 -78.4233 228° Southwest 422 486 36,000  Level Washington Center
Tue 10:16:10 PM 37.7533 -78.5336 229° Southwest 422 486 36,000  Level Washington Center
Tue 10:17:10 PM 37.6842 -78.6306 228° Southwest 422 486 36,000  Level Washington Center
Tue 10:18:10 PM 37.6064 -78.7400 228° Southwest 422 486 36,000  Level Washington Center
Tue 10:19:10 PM 37.5283 -78.8522 229° Southwest 427 491 36,000  Level Washington Center
Tue 10:20:10 PM 37.4503 -78.9614 228° Southwest 427 491 36,000  Level Washington Center
Tue 10:21:10 PM 37.3697 -79.0728 228° Southwest 427 491 36,000  Level Washington Center
Tue 10:22:10 PM 37.2828 -79.1914 227° Southwest 427 491 36,000  Level Washington Center
Tue 10:23:10 PM 37.1903 -79.2861 219° Southwest 427 491 36,000  Level Washington Center
Tue 10:24:10 PM 37.0917 -79.3700 214° Southwest 434 499 36,000 -150 Level Washington Center
Tue 10:25:10 PM 36.9889 -79.4533 213° Southwest 439 505 35,700 -850 Descending Washington Center
Tue 10:26:10 PM 36.8922 -79.5342 214° Southwest 434 499 34,300 -1,550 Descending Washington Center
Tue 10:27:10 PM 36.8086 -79.6025 213° Southwest 422 486 32,600 -1,900 Descending Washington Center
Tue 10:28:10 PM 36.7100 -79.6856 214° Southwest 416 479 30,500 -2,282 Descending Washington Center
Tue 10:29:53 PM 36.5244 -79.8356 213° Southwest 439 505 26,400 -2,503 Descending Atlanta Center
Tue 10:30:53 PM 36.4308 -79.9075 212° Southwest 444 511 23,700 -2,200 Descending Atlanta Center
Tue 10:31:53 PM 36.3314 -79.9900 214° Southwest 444 511 22,000 -1,250 Descending Atlanta Center
Tue 10:32:53 PM 36.2342 -80.0747 215° Southwest 438 504 21,200 -1,600 Descending Atlanta Center
Tue 10:33:53 PM 36.1408 -80.1539 214° Southwest 427 491 18,800 -2,450 Descending Atlanta Center
Tue 10:34:53 PM 36.0431 -80.2356 214° Southwest 412 474 16,300 -2,250 Descending Atlanta Center
Tue 10:35:53 PM 35.9578 -80.3089 215° Southwest 402 463 14,300 -1,650 Descending Atlanta Center
Tue 10:36:53 PM 35.8786 -80.3764 215° Southwest 390 449 13,000 -865 Descending Atlanta Center
Tue 10:37:44 PM 35.8114 -80.4358 216° Southwest 311 358 12,700 -1,075 Descending Atlanta Center
Tue 10:38:39 PM 35.7483 -80.4897 215° Southwest 282 325 11,100 -1,096 Descending Atlanta Center
Tue 10:39:39 PM 35.6769 -80.5442 212° Southwest 291 335 10,600 -843 Descending Atlanta Center
Tue 10:40:40 PM 35.6094 -80.5928 210° Southwest 292 336 9,400 -1,269 Descending Atlanta Center
Tue 10:41:23 PM 35.5622 -80.6256 209° Southwest 279 321 8,400 -1,479 Descending Atlanta Center
Tue 10:41:53 PM 35.5233 -80.6500 207° Southwest 282 325 7,600 -1,600 Descending Atlanta Center
Tue 10:42:23 PM 35.4928 -80.6744 213° Southwest 270 311 6,800 -1,500 Descending Atlanta Center
Tue 10:42:53 PM 35.4600 -80.6961 208° Southwest 277 319 6,100 -1,519 Descending Atlanta Center
Tue 10:43:42 PM 35.4067 -80.7314 208° Southwest 267 307 4,800 -1,355 Descending Atlanta Center
Tue 10:44:26 PM 35.3644 -80.7575 207° Southwest 252 290 4,000 -750 Descending FAA TRACON SMA TRACON (SMA)
Tue 10:44:46 PM 35.3461 -80.7697 209° Southwest 248 285 4,000  Level FAA TRACON SMA TRACON (SMA)
Tue 10:45:06 PM 35.3258 -80.7892 218° Southwest 242 278 4,000 -308 Level FAA TRACON SMA TRACON (SMA)
Tue 10:45:25 PM 35.3125 -80.8075 228° Southwest 232 267 3,800 -1,200 Descending FAA TRACON SMA TRACON (SMA)
Tue 10:45:46 PM 35.2994 -80.8253 228° Southwest 230 265 3,200 -1,950 Descending FAA TRACON SMA TRACON (SMA)
Tue 10:46:05 PM 35.2839 -80.8467 228° Southwest 214 246 2,500 -1,350 Descending FAA TRACON SMA TRACON (SMA)
Tue 10:46:26 PM 35.2731 -80.8614 228° Southwest 186 214 2,300 -732 Descending FAA TRACON SMA TRACON (SMA)
Tue 10:46:46 PM 35.2639 -80.8739 228° Southwest 160 184 2,000 -900 Descending FAA TRACON SMA TRACON (SMA)

Login

Don't have an account? Register now (free) for customized features, flight alerts, and more!